Time;durP1;ratioP1;P1;durP2;ratioP2;P2;SDS_P1;SDS_P2;PMS_P1;PMS_P2;Temp;Humidity;BMP_temperature;BMP_pressure;BME280_temperature;BME280_humidity;BME280_pressure;Samples;Min_cycle;Max_cycle;Signal;HPM_P1;HPM_P2
2021/12/07 00:02:01;;;;;;;1999.90;432.07;;;1.90;99.90;;;;;;4919204;29;20486;-76
2021/12/07 00:04:31;;;;;;;1990.37;313.03;;;1.90;99.90;;;;;;4901813;29;20481;-75
2021/12/07 00:07:00;;;;;;;1999.90;302.10;;;1.90;99.90;;;;;;4901699;29;20453;-75
2021/12/07 00:09:29;;;;;;;1999.90;558.10;;;1.90;99.90;;;;;;4901783;29;20460;-75
2021/12/07 00:12:03;;;;;;;1999.90;357.73;;;1.90;99.90;;;;;;4919032;29;20449;-76
2021/12/07 00:14:40;;;;;;;1790.40;292.30;;;1.90;99.90;;;;;;4902567;29;20479;-76
2021/12/07 00:17:09;;;;;;;1710.87;245.17;;;1.90;99.90;;;;;;4901648;29;20484;-75
2021/12/07 00:19:38;;;;;;;1999.90;445.30;;;1.90;99.90;;;;;;4901810;29;20919;-75
2021/12/07 00:22:09;;;;;;;1962.43;256.23;;;1.90;99.90;;;;;;4901627;29;20579;-75
2021/12/07 00:24:41;;;;;;;1977.23;292.67;;;1.90;99.90;;;;;;4901522;29;20484;-75
2021/12/07 00:27:09;;;;;;;1890.60;233.13;;;1.90;99.90;;;;;;4901439;29;20957;-75
2021/12/07 00:29:39;;;;;;;1858.10;291.57;;;1.90;99.90;;;;;;4918688;29;20504;-75
2021/12/07 00:32:20;;;;;;;1714.10;240.97;;;1.90;99.90;;;;;;4901273;29;20825;-75
2021/12/07 00:35:12;;;;;;;1834.63;289.70;;;1.90;99.90;;;;;;4918937;29;20459;-75
2021/12/07 00:37:42;;;;;;;1800.77;311.73;;;1.90;99.90;;;;;;4901354;29;20449;-75
2021/12/07 00:40:14;;;;;;;1530.87;204.53;;;1.90;99.90;;;;;;4900719;29;20449;-75
2021/12/07 00:42:43;;;;;;;1917.20;287.30;;;1.90;99.90;;;;;;4918460;29;20819;-75
2021/12/07 00:45:13;;;;;;;1999.90;466.83;;;1.90;99.90;;;;;;4901079;29;20472;-75
2021/12/07 00:47:41;;;;;;;1999.90;530.97;;;1.90;99.90;;;;;;4901110;29;20897;-75
2021/12/07 00:50:11;;;;;;;1752.23;206.70;;;1.90;99.90;;;;;;4918035;29;20456;-75
2021/12/07 00:52:40;;;;;;;1999.90;333.23;;;1.90;99.90;;;;;;4900991;29;20482;-75
2021/12/07 00:55:14;;;;;;;1999.90;476.93;;;1.80;99.90;;;;;;4901126;29;20971;-75
2021/12/07 00:57:43;;;;;;;1999.90;517.43;;;1.80;99.90;;;;;;4901148;29;20451;-75
2021/12/07 01:00:14;;;;;;;1973.63;299.93;;;1.80;99.90;;;;;;4918356;29;20448;-75
2021/12/07 01:02:42;;;;;;;1999.90;578.80;;;1.80;99.90;;;;;;4900963;29;20528;-75
2021/12/07 01:05:17;;;;;;;1999.90;567.80;;;1.80;99.90;;;;;;4901005;29;21003;-75
2021/12/07 01:08:08;;;;;;;1788.23;257.93;;;1.80;99.90;;;;;;4900924;29;20888;-75
2021/12/07 01:24:42;;;;;;;1597.87;221.43;;;1.80;99.90;;;;;;4881750;29;20561;-75
2021/12/07 01:27:15;;;;;;;1418.70;208.97;;;1.80;99.90;;;;;;4900476;29;20445;-75
2021/12/07 01:29:46;;;;;;;1555.13;235.60;;;1.80;99.90;;;;;;4918056;29;20563;-75
2021/12/07 01:32:33;;;;;;;1999.90;610.53;;;1.80;99.90;;;;;;4900536;29;20441;-75
2021/12/07 01:35:34;;;;;;;1841.50;255.27;;;1.80;99.90;;;;;;4900441;29;20539;-75
2021/12/07 01:38:22;;;;;;;1203.00;175.50;;;1.80;99.90;;;;;;4900323;29;20463;-75
2021/12/07 01:41:08;;;;;;;1326.87;218.33;;;1.80;99.90;;;;;;4900456;29;20448;-75
2021/12/07 01:46:54;;;;;;;1261.87;166.80;;;1.90;99.90;;;;;;4900237;29;20480;-75
2021/12/07 01:52:33;;;;;;;1459.97;227.20;;;1.90;99.90;;;;;;4917074;29;20789;-75
2021/12/07 01:59:31;;;;;;;1936.23;287.50;;;1.90;99.90;;;;;;4884605;29;20486;-76
2021/12/07 02:00:46;;;;;;;1999.90;497.80;;;1.90;99.90;;;;;;4899908;29;20456;-75
2021/12/07 02:03:15;;;;;;;1528.53;251.07;;;1.90;99.90;;;;;;4900047;29;20481;-76
2021/12/07 02:05:44;;;;;;;1999.90;573.80;;;1.90;99.90;;;;;;4899976;29;20481;-75
2021/12/07 02:08:12;;;;;;;1999.90;382.17;;;1.90;99.90;;;;;;4900019;29;20509;-76
2021/12/07 02:10:40;;;;;;;1999.90;364.83;;;1.90;99.90;;;;;;4900181;29;20461;-75
2021/12/07 02:13:22;;;;;;;1889.70;280.37;;;1.90;99.90;;;;;;4899896;29;20851;-75
2021/12/07 02:15:52;;;;;;;1999.90;331.27;;;1.90;99.90;;;;;;4900044;29;20494;-75
2021/12/07 02:18:23;;;;;;;1787.53;312.50;;;2.00;99.90;;;;;;4900509;29;20447;-76
2021/12/07 02:20:53;;;;;;;1999.90;623.37;;;1.90;99.90;;;;;;4916941;29;20523;-75
2021/12/07 02:23:21;;;;;;;1978.83;293.07;;;2.00;99.90;;;;;;4899775;29;20510;-76
2021/12/07 02:25:49;;;;;;;1999.90;386.47;;;2.00;99.90;;;;;;4899839;29;20475;-75
2021/12/07 02:28:17;;;;;;;1999.90;446.30;;;2.00;99.90;;;;;;4917121;29;20449;-75
2021/12/07 02:30:46;;;;;;;1999.90;354.60;;;2.00;99.90;;;;;;4899860;29;20460;-75
2021/12/07 02:33:15;;;;;;;1999.90;476.87;;;2.00;99.90;;;;;;4899793;29;20500;-75
2021/12/07 02:35:43;;;;;;;1999.90;325.97;;;2.00;99.90;;;;;;4899822;29;20452;-75
2021/12/07 02:38:13;;;;;;;1953.53;242.60;;;2.00;99.90;;;;;;4899675;29;20461;-75
2021/12/07 02:40:41;;;;;;;1999.90;466.37;;;2.00;99.90;;;;;;4899682;29;20463;-76
2021/12/07 02:43:11;;;;;;;1999.90;369.03;;;2.00;99.90;;;;;;4899645;29;20492;-75
2021/12/07 02:45:40;;;;;;;1955.20;331.53;;;2.00;99.90;;;;;;4899805;29;20480;-75
2021/12/07 02:48:08;;;;;;;1803.27;298.80;;;2.00;99.90;;;;;;4899712;29;20520;-75
2021/12/07 02:50:37;;;;;;;1840.80;277.83;;;2.00;99.90;;;;;;4899684;29;20453;-75
2021/12/07 02:53:05;;;;;;;1999.90;604.53;;;2.00;99.90;;;;;;4899945;29;20468;-75
2021/12/07 02:55:35;;;;;;;1999.90;363.67;;;2.00;99.90;;;;;;4899695;29;20875;-76
2021/12/07 02:58:04;;;;;;;1999.90;698.27;;;2.00;99.90;;;;;;4899663;29;20480;-75
2021/12/07 03:00:40;;;;;;;1999.90;514.43;;;2.10;99.90;;;;;;4899612;29;20458;-75
2021/12/07 03:03:12;;;;;;;1999.90;542.03;;;2.10;99.90;;;;;;4903177;29;20499;-75
2021/12/07 03:05:48;;;;;;;1999.90;489.93;;;2.10;99.90;;;;;;4903051;29;20479;-76
2021/12/07 03:08:52;;;;;;;1999.90;588.57;;;2.10;99.90;;;;;;4902988;29;20539;-75
2021/12/07 03:28:14;;;;;;;1999.90;272.10;;;2.00;99.90;;;;;;4902617;29;20457;-75
2021/12/07 03:30:42;;;;;;;1999.90;779.80;;;2.00;99.90;;;;;;4902637;29;20532;-75
2021/12/07 03:33:11;;;;;;;1999.90;651.10;;;2.00;99.90;;;;;;4902410;29;20879;-75
2021/12/07 03:35:40;;;;;;;1999.90;393.10;;;2.00;99.90;;;;;;4902480;29;20478;-75
2021/12/07 03:38:09;;;;;;;1999.90;397.10;;;2.00;99.90;;;;;;4902345;29;20463;-75
2021/12/07 03:40:39;;;;;;;1999.90;769.73;;;2.00;99.90;;;;;;4902468;29;20458;-75
2021/12/07 03:43:08;;;;;;;1999.90;358.30;;;2.00;99.90;;;;;;4903038;29;20484;-75
2021/12/07 03:45:38;;;;;;;1999.90;424.33;;;2.00;99.90;;;;;;4903102;29;20487;-75
2021/12/07 03:48:08;;;;;;;1953.73;382.70;;;2.00;99.90;;;;;;4902808;29;20457;-75
2021/12/07 03:50:37;;;;;;;1999.90;465.83;;;2.00;99.90;;;;;;4919161;29;20445;-75
2021/12/07 03:53:06;;;;;;;1999.90;686.50;;;2.00;99.90;;;;;;4902106;29;20480;-75
2021/12/07 03:55:34;;;;;;;1999.90;504.93;;;2.00;99.90;;;;;;4902129;29;21045;-75
2021/12/07 03:58:03;;;;;;;1999.90;667.63;;;2.00;99.90;;;;;;4902136;29;20535;-75
2021/12/07 04:00:34;;;;;;;1999.90;463.17;;;2.00;99.90;;;;;;4902045;29;21043;-76
2021/12/07 04:03:09;;;;;;;1999.90;684.90;;;2.00;99.90;;;;;;4902012;29;20529;-75
2021/12/07 04:05:44;;;;;;;1999.90;407.40;;;2.00;99.90;;;;;;4902003;29;20503;-75
2021/12/07 04:08:19;;;;;;;1999.90;394.30;;;2.00;99.90;;;;;;4902004;29;20448;-75
2021/12/07 04:10:47;;;;;;;1999.90;755.30;;;2.00;99.90;;;;;;4902779;29;20503;-75
2021/12/07 04:13:16;;;;;;;1999.90;414.57;;;2.00;99.90;;;;;;4901078;29;20556;-75
2021/12/07 04:15:45;;;;;;;1999.90;435.90;;;2.00;99.90;;;;;;4901806;29;20456;-75
2021/12/07 04:18:15;;;;;;;1939.50;387.03;;;2.00;99.90;;;;;;4901661;29;20556;-75
2021/12/07 04:20:43;;;;;;;1999.90;481.60;;;2.00;99.90;;;;;;4901677;29;20456;-75
2021/12/07 04:23:13;;;;;;;1999.90;699.30;;;2.00;99.90;;;;;;4901524;29;20515;-75
2021/12/07 04:25:41;;;;;;;1999.90;658.10;;;2.00;99.90;;;;;;4901654;29;20468;-75
2021/12/07 04:28:09;;;;;;;1999.90;740.07;;;2.00;99.90;;;;;;4901569;29;21023;-75
2021/12/07 04:30:41;;;;;;;1999.90;485.40;;;2.00;99.90;;;;;;4901482;29;20900;-75
2021/12/07 04:33:11;;;;;;;1964.17;358.90;;;2.00;99.90;;;;;;4901490;29;20598;-75
2021/12/07 04:35:44;;;;;;;1918.40;363.53;;;2.00;99.90;;;;;;4918337;29;20450;-75
2021/12/07 04:38:12;;;;;;;1999.90;693.43;;;2.00;99.90;;;;;;4918698;29;20428;-75
2021/12/07 04:40:42;;;;;;;1999.90;464.50;;;2.00;99.90;;;;;;4901343;29;20460;-75
2021/12/07 04:43:10;;;;;;;1999.90;371.87;;;2.00;99.90;;;;;;4901427;29;20487;-75
2021/12/07 04:45:51;;;;;;;1999.90;491.47;;;2.00;99.90;;;;;;4918469;29;20779;-75
2021/12/07 04:48:45;;;;;;;1999.90;330.53;;;2.00;99.90;;;;;;4918376;29;20472;-76
2021/12/07 04:59:33;;;;;;;1999.90;420.33;;;2.00;99.90;;;;;;4901619;29;20610;-75
2021/12/07 05:02:01;;;;;;;1999.90;369.37;;;2.00;99.90;;;;;;4917953;29;20559;-75
2021/12/07 05:04:32;;;;;;;1999.90;639.57;;;2.10;99.90;;;;;;4917899;29;21009;-75
2021/12/07 05:07:08;;;;;;;1999.90;859.33;;;2.00;99.90;;;;;;4900818;29;20507;-75
2021/12/07 05:10:06;;;;;;;1693.67;348.73;;;2.10;99.90;;;;;;4900835;29;20471;-75
2021/12/07 05:12:41;;;;;;;1903.50;322.37;;;2.00;99.90;;;;;;4900564;29;20985;-75
2021/12/07 05:15:19;;;;;;;1999.90;329.37;;;2.10;99.90;;;;;;4918022;29;20833;-75
2021/12/07 05:18:03;;;;;;;1999.90;411.17;;;2.10;99.90;;;;;;4900625;29;20469;-76
2021/12/07 05:40:10;;;;;;;1882.50;284.20;;;2.10;99.90;;;;;;4910854;29;20564;-75
2021/12/07 05:42:39;;;;;;;1999.90;309.67;;;2.10;99.90;;;;;;4900224;29;20477;-75
2021/12/07 05:45:10;;;;;;;1999.90;319.47;;;2.10;99.90;;;;;;4917384;29;20436;-75
2021/12/07 05:47:38;;;;;;;1999.90;321.30;;;2.10;99.90;;;;;;4917400;29;20464;-75
2021/12/07 05:50:09;;;;;;;1999.90;669.30;;;2.20;99.90;;;;;;4917166;29;20965;-75
2021/12/07 05:52:37;;;;;;;1999.90;664.27;;;2.20;99.90;;;;;;4900196;29;20452;-75
2021/12/07 05:55:08;;;;;;;1999.90;434.43;;;2.20;99.90;;;;;;4917401;29;20448;-75
2021/12/07 05:57:37;;;;;;;1999.90;477.10;;;2.20;99.90;;;;;;4900081;29;20894;-75
2021/12/07 06:00:08;;;;;;;1857.20;398.23;;;2.20;99.90;;;;;;4917294;29;20808;-75
2021/12/07 06:02:40;;;;;;;1999.90;666.10;;;2.20;99.90;;;;;;4917820;29;20495;-75
2021/12/07 06:05:09;;;;;;;1999.90;505.27;;;2.20;99.90;;;;;;4917028;29;20446;-75
2021/12/07 06:07:37;;;;;;;1999.90;351.70;;;2.20;99.90;;;;;;4899961;29;20479;-75
2021/12/07 06:10:08;;;;;;;1999.90;585.87;;;2.20;99.90;;;;;;4917253;29;20451;-75
2021/12/07 06:12:36;;;;;;;1999.90;798.10;;;2.20;99.90;;;;;;4917507;29;20472;-76
2021/12/07 06:15:06;;;;;;;1999.90;363.97;;;2.20;99.90;;;;;;4917212;29;20448;-75
2021/12/07 06:17:34;;;;;;;1999.90;614.93;;;2.20;99.90;;;;;;4899972;29;20496;-76
2021/12/07 06:20:03;;;;;;;1067.03;308.53;;;2.30;99.90;;;;;;4899999;29;20455;-75
2021/12/07 06:22:32;;;;;;;1999.90;832.07;;;2.30;99.90;;;;;;4899728;29;20503;-75
2021/12/07 06:25:00;;;;;;;1999.90;435.23;;;2.30;99.90;;;;;;4899831;29;20480;-75
2021/12/07 06:27:29;;;;;;;1999.90;344.07;;;2.30;99.90;;;;;;4899859;29;20534;-75
2021/12/07 06:29:57;;;;;;;1522.47;407.17;;;2.30;99.90;;;;;;4899926;29;20450;-75
2021/12/07 06:32:26;;;;;;;1625.57;371.67;;;2.30;99.90;;;;;;4899818;29;20464;-75
2021/12/07 06:34:54;;;;;;;1999.90;813.43;;;2.30;99.90;;;;;;4899779;29;21025;-75
2021/12/07 06:37:22;;;;;;;1999.90;482.53;;;2.30;99.90;;;;;;4901593;29;21016;-75
2021/12/07 06:39:51;;;;;;;1587.13;363.23;;;2.30;99.90;;;;;;4903572;29;20445;-75
2021/12/07 06:42:19;;;;;;;1999.90;417.87;;;2.30;99.90;;;;;;4903563;29;20464;-75
2021/12/07 06:44:49;;;;;;;1999.90;803.27;;;2.30;99.90;;;;;;4903600;29;20453;-75
2021/12/07 06:47:17;;;;;;;1999.90;782.47;;;2.30;99.90;;;;;;4920801;29;20574;-75
2021/12/07 06:49:45;;;;;;;1999.90;529.70;;;2.30;99.90;;;;;;4903617;29;20527;-75
2021/12/07 06:52:14;;;;;;;1999.90;999.90;;;2.40;99.90;;;;;;4903228;29;20539;-75
2021/12/07 06:54:42;;;;;;;1858.10;390.37;;;2.40;99.90;;;;;;4902967;29;20571;-75
2021/12/07 06:57:10;;;;;;;1661.07;572.40;;;2.40;99.90;;;;;;4920232;29;20467;-75
2021/12/07 06:59:38;;;;;;;1999.90;800.40;;;2.40;99.90;;;;;;4903163;29;20452;-75
2021/12/07 07:02:09;;;;;;;1785.77;320.43;;;2.30;99.90;;;;;;4920207;29;20457;-75
2021/12/07 07:04:37;;;;;;;1999.90;754.43;;;2.40;99.90;;;;;;4920290;29;20484;-75
2021/12/07 07:07:05;;;;;;;1483.37;564.77;;;2.40;99.90;;;;;;4902832;29;20485;-75
2021/12/07 07:09:34;;;;;;;1323.97;514.47;;;2.40;99.90;;;;;;4902841;29;20547;-75
2021/12/07 07:12:02;;;;;;;1474.40;289.93;;;2.40;99.90;;;;;;4919891;29;20508;-75
2021/12/07 07:14:30;;;;;;;1999.90;426.63;;;2.40;99.90;;;;;;4919762;29;20461;-75
2021/12/07 07:16:58;;;;;;;1922.90;313.23;;;2.40;99.90;;;;;;4902769;29;20499;-75
2021/12/07 07:19:28;;;;;;;1208.70;551.90;;;2.40;99.90;;;;;;4920003;29;20452;-75
2021/12/07 07:21:58;;;;;;;1416.03;379.47;;;2.40;99.90;;;;;;4902736;29;20818;-75
2021/12/07 07:24:26;;;;;;;1999.90;999.90;;;2.40;99.90;;;;;;4919648;29;20844;-74
2021/12/07 07:26:54;;;;;;;1999.90;314.27;;;2.40;99.90;;;;;;4902635;29;20869;-75
2021/12/07 07:29:23;;;;;;;1348.00;544.03;;;2.40;99.90;;;;;;4902517;29;20484;-75
2021/12/07 07:31:51;;;;;;;1984.53;370.13;;;2.40;99.90;;;;;;4902632;29;20445;-75
2021/12/07 07:34:19;;;;;;;1999.90;772.47;;;2.40;99.90;;;;;;4919703;29;20507;-75
2021/12/07 07:36:49;;;;;;;972.23;282.57;;;2.50;99.90;;;;;;4919695;29;20476;-75
2021/12/07 07:39:17;;;;;;;1196.13;514.07;;;2.50;99.90;;;;;;4902408;29;20934;-75
2021/12/07 07:41:45;;;;;;;1575.77;359.17;;;2.50;99.90;;;;;;4902538;29;20464;-75
2021/12/07 07:44:14;;;;;;;1710.43;564.23;;;2.50;99.90;;;;;;4919157;29;20556;-75
2021/12/07 07:46:46;;;;;;;1999.90;493.40;;;2.50;99.90;;;;;;4902384;29;20452;-75
2021/12/07 07:49:14;;;;;;;1999.90;592.93;;;2.50;99.90;;;;;;4901051;29;21001;-75
2021/12/07 07:51:42;;;;;;;1964.67;227.80;;;2.50;99.90;;;;;;4902252;29;20494;-80
2021/12/07 07:54:12;;;;;;;1783.67;361.73;;;2.50;99.90;;;;;;4919017;29;20638;-75
2021/12/07 07:56:43;;;;;;;1999.90;269.97;;;2.50;99.90;;;;;;4902166;29;20461;-75
2021/12/07 07:59:11;;;;;;;1552.17;363.57;;;2.50;99.90;;;;;;4902067;29;20539;-75
2021/12/07 08:01:40;;;;;;;403.63;298.47;;;2.50;99.90;;;;;;4902069;29;20464;-75
2021/12/07 08:04:09;;;;;;;1999.90;753.80;;;2.50;99.90;;;;;;4902419;29;20571;-75
2021/12/07 08:06:37;;;;;;;1999.90;231.30;;;2.50;99.90;;;;;;4918863;29;20451;-75
2021/12/07 08:09:08;;;;;;;1232.37;337.40;;;2.50;99.90;;;;;;4918794;29;20602;-75
2021/12/07 08:11:38;;;;;;;1999.90;999.90;;;2.60;99.90;;;;;;4919877;29;20463;-75
2021/12/07 08:14:06;;;;;;;1999.90;999.90;;;2.60;99.90;;;;;;4901766;29;20843;-75
2021/12/07 08:16:34;;;;;;;978.63;451.97;;;2.60;99.90;;;;;;4901776;29;20538;-75
2021/12/07 08:19:03;;;;;;;1060.97;319.97;;;2.60;99.90;;;;;;4901569;29;21019;-75
2021/12/07 08:21:32;;;;;;;1973.37;758.47;;;2.60;99.90;;;;;;4901656;29;20464;-75
2021/12/07 08:24:00;;;;;;;987.83;263.73;;;2.70;99.90;;;;;;4901569;29;20920;-75
2021/12/07 08:26:29;;;;;;;1999.90;999.90;;;2.70;99.90;;;;;;4901653;29;20455;-75
2021/12/07 08:29:00;;;;;;;1999.90;999.90;;;2.70;99.90;;;;;;4918625;29;20477;-75
2021/12/07 08:31:29;;;;;;;1069.50;529.50;;;2.70;99.90;;;;;;4901637;29;20540;-75
2021/12/07 08:33:57;;;;;;;463.03;262.30;;;2.70;99.90;;;;;;4901415;29;20480;-75
2021/12/07 08:36:25;;;;;;;935.10;296.17;;;2.70;99.90;;;;;;4918718;29;20475;-75
2021/12/07 08:38:54;;;;;;;200.10;187.07;;;2.70;99.90;;;;;;4918652;29;20801;-75
2021/12/07 08:41:22;;;;;;;778.67;249.20;;;2.80;99.90;;;;;;4919038;29;20437;-75
2021/12/07 08:43:51;;;;;;;1999.90;999.90;;;2.80;99.90;;;;;;4918404;29;20483;-75
2021/12/07 08:46:21;;;;;;;300.40;221.67;;;2.80;99.90;;;;;;4901290;29;20473;-75
2021/12/07 08:48:50;;;;;;;1999.90;999.90;;;2.90;99.90;;;;;;4901084;29;20500;-75
2021/12/07 08:51:19;;;;;;;1999.90;999.90;;;2.90;99.90;;;;;;4901182;29;20459;-75
2021/12/07 08:53:53;;;;;;;341.23;304.30;;;2.90;99.90;;;;;;4901105;29;20480;-75
2021/12/07 08:59:40;;;;;;;1999.90;749.33;;;2.90;99.90;;;;;;4862589;29;20454;-75
2021/12/07 09:02:09;;;;;;;1999.90;999.90;;;2.90;99.90;;;;;;4878472;29;20635;-75
2021/12/07 09:04:38;;;;;;;512.27;261.70;;;2.90;99.90;;;;;;4893225;29;20555;-75
2021/12/07 09:07:06;;;;;;;237.50;212.57;;;3.00;99.90;;;;;;4917977;29;20445;-75
2021/12/07 09:09:36;;;;;;;213.50;192.17;;;3.00;99.90;;;;;;4900848;29;20576;-75
2021/12/07 09:12:05;;;;;;;305.20;269.43;;;3.00;99.90;;;;;;4900918;29;20459;-75
2021/12/07 09:14:35;;;;;;;185.43;168.23;;;3.00;99.90;;;;;;4900748;29;20480;-75
2021/12/07 09:17:05;;;;;;;1999.90;999.90;;;3.10;99.90;;;;;;4901035;29;20723;-75
2021/12/07 09:19:35;;;;;;;213.20;193.97;;;3.10;99.90;;;;;;4900820;29;20491;-75
2021/12/07 09:22:05;;;;;;;178.27;161.70;;;3.10;99.90;;;;;;4900643;29;20515;-75
2021/12/07 09:24:53;;;;;;;677.93;254.03;;;3.10;99.90;;;;;;4917643;29;20441;-75
2021/12/07 09:27:21;;;;;;;217.93;170.37;;;3.10;99.90;;;;;;4917809;29;20456;-75
2021/12/07 09:29:49;;;;;;;623.67;237.30;;;3.10;99.90;;;;;;4900452;29;21015;-75
2021/12/07 09:32:17;;;;;;;1999.90;999.90;;;3.20;99.90;;;;;;4900423;29;20480;-75
2021/12/07 09:34:47;;;;;;;647.83;173.87;;;3.20;99.90;;;;;;4900366;29;20469;-75
2021/12/07 09:37:15;;;;;;;1999.90;999.90;;;3.20;99.90;;;;;;4900383;29;20460;-75
2021/12/07 09:39:44;;;;;;;1999.90;999.90;;;3.20;99.90;;;;;;4917562;29;20484;-75
2021/12/07 09:42:12;;;;;;;336.13;224.07;;;3.20;99.90;;;;;;4900235;29;20457;-75
2021/12/07 09:44:40;;;;;;;219.23;197.40;;;3.30;99.90;;;;;;4900193;29;20527;-75
2021/12/07 09:47:08;;;;;;;136.20;124.33;;;3.30;99.90;;;;;;4900416;29;20548;-75
2021/12/07 09:49:36;;;;;;;1999.90;585.73;;;3.30;99.90;;;;;;4900086;29;20516;-75
2021/12/07 09:52:06;;;;;;;112.33;104.03;;;3.30;99.90;;;;;;4917289;29;20546;-75
2021/12/07 09:54:35;;;;;;;92.17;84.33;;;3.40;99.90;;;;;;4900256;29;20484;-75
2021/12/07 09:57:05;;;;;;;97.33;79.40;;;3.40;99.90;;;;;;4900176;29;20443;-75
2021/12/07 09:59:33;;;;;;;126.50;114.40;;;3.50;99.90;;;;;;4917478;29;20593;-75
2021/12/07 10:02:06;;;;;;;129.60;119.40;;;3.50;99.90;;;;;;4900182;29;20457;-75
2021/12/07 10:04:35;;;;;;;110.93;101.63;;;3.50;99.90;;;;;;4917370;29;20482;-75
2021/12/07 10:07:04;;;;;;;193.13;179.67;;;3.50;99.90;;;;;;4917012;29;20446;-75
2021/12/07 10:09:33;;;;;;;92.47;85.00;;;3.60;99.90;;;;;;4900099;29;21024;-75
2021/12/07 10:12:02;;;;;;;129.80;107.23;;;3.60;99.90;;;;;;4901354;29;20452;-75
2021/12/07 10:14:37;;;;;;;97.70;87.57;;;3.70;99.90;;;;;;4904096;29;20580;-75
2021/12/07 10:17:06;;;;;;;134.87;92.53;;;3.70;99.90;;;;;;4921156;29;20867;-75
2021/12/07 10:19:37;;;;;;;81.93;74.67;;;3.70;99.90;;;;;;4904098;29;20444;-74
2021/12/07 10:22:08;;;;;;;189.13;69.70;;;3.80;99.90;;;;;;4920859;29;20810;-75
2021/12/07 10:24:46;;;;;;;175.67;66.93;;;3.80;99.90;;;;;;4920799;29;20510;-75
2021/12/07 10:27:31;;;;;;;171.10;85.10;;;3.80;99.90;;;;;;4903802;29;20544;-75
2021/12/07 10:30:00;;;;;;;143.00;89.00;;;3.80;99.90;;;;;;4904549;29;20906;-75
2021/12/07 10:32:29;;;;;;;131.60;97.57;;;3.80;99.90;;;;;;4920807;29;20478;-75
2021/12/07 10:34:57;;;;;;;152.90;116.17;;;3.90;99.90;;;;;;4903543;29;20555;-75
2021/12/07 10:37:25;;;;;;;127.93;79.73;;;4.00;99.90;;;;;;4903531;29;20989;-75
2021/12/07 10:39:56;;;;;;;157.37;82.20;;;3.90;99.90;;;;;;4903582;29;20449;-75
2021/12/07 10:42:27;;;;;;;148.53;104.87;;;3.90;99.90;;;;;;4903458;29;20835;-75
2021/12/07 10:45:03;;;;;;;261.67;72.90;;;4.00;99.90;;;;;;4920646;29;20444;-75
2021/12/07 10:47:31;;;;;;;165.33;153.60;;;4.00;99.90;;;;;;4920967;29;20459;-75
2021/12/07 10:50:02;;;;;;;152.80;84.83;;;4.10;99.90;;;;;;4920580;29;20482;-75
2021/12/07 10:52:32;;;;;;;136.57;80.60;;;4.10;99.90;;;;;;4903478;29;20960;-75
2021/12/07 10:55:07;;;;;;;129.13;59.70;;;4.10;99.90;;;;;;4920590;29;20508;-75
2021/12/07 10:57:38;;;;;;;75.27;65.97;;;4.10;99.90;;;;;;4903302;29;21015;-75
2021/12/07 11:00:20;;;;;;;117.97;74.20;;;4.10;99.90;;;;;;4903261;29;20479;-75
2021/12/07 11:02:52;;;;;;;167.63;105.03;;;4.20;99.90;;;;;;4903442;29;20511;-75
2021/12/07 11:05:23;;;;;;;225.87;61.93;;;4.20;99.90;;;;;;4903145;29;20966;-75
2021/12/07 11:07:52;;;;;;;195.83;57.93;;;4.20;99.90;;;;;;4920639;29;20514;-75
2021/12/07 11:10:29;;;;;;;126.77;86.03;;;4.20;99.90;;;;;;4920202;29;20472;-75
2021/12/07 11:13:02;;;;;;;278.90;65.70;;;4.20;99.90;;;;;;4902908;29;20886;-75
2021/12/07 11:15:32;;;;;;;203.50;122.83;;;4.30;99.90;;;;;;4920204;29;20876;-75
2021/12/07 11:18:03;;;;;;;183.53;127.50;;;4.30;99.90;;;;;;4919709;29;20539;-75
2021/12/07 11:20:32;;;;;;;141.43;103.30;;;4.30;99.90;;;;;;4903906;29;20479;-75
2021/12/07 11:23:02;;;;;;;231.47;162.50;;;4.30;99.90;;;;;;4902572;29;20487;-75
2021/12/07 11:31:27;;;;;;;423.87;236.13;;;4.20;99.90;;;;;;4902407;29;21037;-75
2021/12/07 11:34:05;;;;;;;1803.90;465.40;;;4.30;99.90;;;;;;4919626;29;20470;-75
2021/12/07 11:36:36;;;;;;;291.53;138.37;;;4.30;99.90;;;;;;4903345;29;20459;-75
2021/12/07 11:39:20;;;;;;;244.40;163.70;;;4.30;99.90;;;;;;4919871;29;20526;-75
2021/12/07 11:41:53;;;;;;;150.50;131.67;;;4.30;99.90;;;;;;4902434;29;20449;-75
2021/12/07 11:44:22;;;;;;;263.40;126.50;;;4.30;99.90;;;;;;4903038;29;20476;-75
2021/12/07 11:46:52;;;;;;;237.77;108.03;;;4.30;99.90;;;;;;4902402;29;20460;-75
2021/12/07 11:49:26;;;;;;;95.37;66.63;;;4.30;99.90;;;;;;4903166;29;20437;-75
2021/12/07 11:51:57;;;;;;;278.33;130.83;;;4.30;99.90;;;;;;4902302;29;20844;-75
2021/12/07 11:54:29;;;;;;;216.57;128.07;;;4.30;99.90;;;;;;4902668;29;20870;-75
2021/12/07 11:57:00;;;;;;;142.13;98.13;;;4.30;99.90;;;;;;4902243;29;20551;-75
2021/12/07 11:59:29;;;;;;;166.90;84.87;;;4.40;99.90;;;;;;4902264;29;20454;-75
2021/12/07 12:01:57;;;;;;;121.60;110.17;;;4.40;99.90;;;;;;4902082;29;20495;-75
2021/12/07 12:04:26;;;;;;;185.67;75.17;;;4.40;99.90;;;;;;4902111;29;20816;-75
2021/12/07 12:06:57;;;;;;;166.20;62.27;;;4.40;99.90;;;;;;4902048;29;20554;-75
2021/12/07 12:09:26;;;;;;;161.33;77.23;;;4.40;99.90;;;;;;4902130;29;20449;-75
2021/12/07 12:12:06;;;;;;;187.27;52.97;;;4.40;99.90;;;;;;4901829;29;20472;-75
2021/12/07 12:14:45;;;;;;;158.87;77.60;;;4.50;99.90;;;;;;4918881;29;20481;-75
2021/12/07 12:17:18;;;;;;;159.20;64.53;;;4.50;99.90;;;;;;4919219;29;20787;-75
2021/12/07 12:20:10;;;;;;;214.87;61.37;;;4.50;99.90;;;;;;4919050;29;20524;-75
2021/12/07 12:22:43;;;;;;;169.00;69.57;;;4.60;99.90;;;;;;4901483;29;20459;-75
2021/12/07 12:25:14;;;;;;;188.87;50.87;;;4.60;99.90;;;;;;4902246;29;20538;-75
2021/12/07 12:27:46;;;;;;;194.23;66.90;;;4.70;99.90;;;;;;4919092;29;20874;-75
2021/12/07 12:30:23;;;;;;;203.57;77.57;;;4.70;99.90;;;;;;4918490;29;20508;-75
2021/12/07 12:32:56;;;;;;;158.77;100.53;;;4.70;99.90;;;;;;4901606;29;20969;-75
2021/12/07 12:35:30;;;;;;;204.70;97.67;;;4.80;99.90;;;;;;4918170;29;20456;-75
2021/12/07 12:37:59;;;;;;;195.90;59.07;;;4.80;99.90;;;;;;4901587;29;20451;-75
2021/12/07 12:40:29;;;;;;;215.87;55.13;;;4.80;99.90;;;;;;4918366;29;20948;-75
2021/12/07 12:43:01;;;;;;;292.87;60.00;;;4.80;99.90;;;;;;4918199;29;20552;-75
2021/12/07 12:45:35;;;;;;;142.30;58.90;;;4.80;99.90;;;;;;4901276;29;20544;-75
2021/12/07 12:48:06;;;;;;;191.33;62.93;;;4.80;99.90;;;;;;4901375;29;20483;-75
2021/12/07 12:50:38;;;;;;;269.70;97.03;;;4.80;99.90;;;;;;4901236;29;20468;-75
2021/12/07 12:53:08;;;;;;;194.50;65.70;;;4.80;99.90;;;;;;4901204;29;20472;-75
2021/12/07 12:55:43;;;;;;;216.17;75.40;;;4.80;99.90;;;;;;4901297;29;20911;-76
2021/12/07 12:58:20;;;;;;;222.60;90.97;;;4.80;99.90;;;;;;4918523;29;20480;-75
2021/12/07 13:01:08;;;;;;;313.17;64.00;;;4.80;99.90;;;;;;4901042;29;20467;-75
2021/12/07 13:03:53;;;;;;;337.87;111.07;;;4.90;99.90;;;;;;4901045;29;20479;-75
2021/12/07 13:06:40;;;;;;;305.80;67.20;;;4.90;99.90;;;;;;4901007;29;20477;-75
2021/12/07 13:09:46;;;;;;;448.83;217.50;;;4.90;99.90;;;;;;4900918;29;20456;-75
2021/12/07 13:12:18;;;;;;;404.40;176.00;;;4.90;99.90;;;;;;4900778;29;20559;-75
2021/12/07 13:14:59;;;;;;;208.90;97.63;;;5.00;99.90;;;;;;4917852;29;20477;-75
2021/12/07 13:17:32;;;;;;;366.97;146.73;;;4.90;99.90;;;;;;4900832;29;20547;-75
2021/12/07 13:20:30;;;;;;;140.50;59.70;;;4.90;99.90;;;;;;4918054;29;20465;-75
2021/12/07 13:23:09;;;;;;;519.23;205.40;;;5.00;99.90;;;;;;4900467;29;20476;-75
2021/12/07 13:25:41;;;;;;;309.83;140.87;;;5.00;99.90;;;;;;4917586;29;20466;-75
2021/12/07 13:28:17;;;;;;;255.10;99.37;;;5.00;99.90;;;;;;4901391;29;20539;-75
2021/12/07 13:31:12;;;;;;;196.03;100.27;;;5.10;99.90;;;;;;4900893;29;20568;-75
2021/12/07 13:33:42;;;;;;;256.97;80.43;;;5.10;99.90;;;;;;4900288;29;20484;-75
2021/12/07 13:36:52;;;;;;;335.50;114.17;;;5.10;99.90;;;;;;4900496;29;20476;-75
2021/12/07 13:39:36;;;;;;;796.70;296.17;;;5.10;99.90;;;;;;4883082;29;20460;-75
2021/12/07 13:42:09;;;;;;;341.67;102.80;;;5.10;99.90;;;;;;4900392;29;20448;-75
2021/12/07 13:44:41;;;;;;;310.90;127.97;;;5.10;99.90;;;;;;4917725;29;20466;-75
2021/12/07 13:47:13;;;;;;;132.53;42.07;;;5.10;99.90;;;;;;4917495;29;20522;-75
2021/12/07 13:49:44;;;;;;;204.83;56.37;;;5.10;99.90;;;;;;4900367;29;20484;-75
2021/12/07 13:52:15;;;;;;;222.03;70.57;;;5.10;99.90;;;;;;4917124;29;21021;-75
2021/12/07 13:54:46;;;;;;;203.37;67.13;;;5.10;99.90;;;;;;4917351;29;20492;-75